Terminal Aerodrome Forecast
Issued by NWS Jackson, MS

Home | Current Version | Previous Version | Text Only | Print | Product List | Glossary On
Versions: 1 2 3 4 5 6 7 8 9 10 11 12
000
FTUS44 KJAN 230556
TAFMEI
TAF
KMEI 230556Z 2306/2406 20005KT P6SM BKN015 OVC025
     FM230900 24003KT 6SM BR OVC007
     FM231500 25009KT P6SM OVC015
     FM231700 24010KT P6SM BKN025
     FM232100 25008KT P6SM SCT035 BKN050=

USA.gov is the U.S. government's official web portal to all federal, state and local government web resources and services.